sensor_id;sensor_type;location;lat;lon;timestamp;P1;durP1;ratioP1;P2;durP2;ratioP2
18435;SDS011;9346;52.006;4.720;2023-10-09T00:01:26;21.40;;;12.27;;
18435;SDS011;9346;52.006;4.720;2023-10-09T00:03:53;23.73;;;14.37;;
18435;SDS011;9346;52.006;4.720;2023-10-09T00:06:22;25.07;;;13.30;;
18435;SDS011;9346;52.006;4.720;2023-10-09T00:08:57;22.67;;;14.63;;
18435;SDS011;9346;52.006;4.720;2023-10-09T00:11:36;22.23;;;14.10;;
18435;SDS011;9346;52.006;4.720;2023-10-09T00:14:07;25.63;;;14.97;;
18435;SDS011;9346;52.006;4.720;2023-10-09T00:16:35;18.07;;;12.60;;
18435;SDS011;9346;52.006;4.720;2023-10-09T00:19:08;20.80;;;13.17;;
18435;SDS011;9346;52.006;4.720;2023-10-09T00:21:42;20.27;;;13.23;;
18435;SDS011;9346;52.006;4.720;2023-10-09T00:24:11;16.70;;;11.60;;
18435;SDS011;9346;52.006;4.720;2023-10-09T00:26:48;16.10;;;11.17;;
18435;SDS011;9346;52.006;4.720;2023-10-09T00:29:16;21.07;;;11.90;;
18435;SDS011;9346;52.006;4.720;2023-10-09T00:31:50;16.93;;;11.07;;
18435;SDS011;9346;52.006;4.720;2023-10-09T00:34:21;17.93;;;10.90;;
18435;SDS011;9346;52.006;4.720;2023-10-09T00:36:51;18.37;;;10.23;;
18435;SDS011;9346;52.006;4.720;2023-10-09T00:39:19;14.90;;;9.17;;
18435;SDS011;9346;52.006;4.720;2023-10-09T00:42:05;12.33;;;8.60;;
18435;SDS011;9346;52.006;4.720;2023-10-09T00:44:32;14.27;;;9.07;;
18435;SDS011;9346;52.006;4.720;2023-10-09T00:47:06;13.00;;;8.03;;
18435;SDS011;9346;52.006;4.720;2023-10-09T00:49:46;12.83;;;7.83;;
18435;SDS011;9346;52.006;4.720;2023-10-09T00:52:15;11.23;;;7.47;;
18435;SDS011;9346;52.006;4.720;2023-10-09T00:54:52;11.13;;;7.13;;
18435;SDS011;9346;52.006;4.720;2023-10-09T00:57:25;9.70;;;6.80;;
18435;SDS011;9346;52.006;4.720;2023-10-09T00:59:56;10.73;;;6.90;;
18435;SDS011;9346;52.006;4.720;2023-10-09T01:02:30;8.27;;;6.43;;
18435;SDS011;9346;52.006;4.720;2023-10-09T01:05:02;15.03;;;7.23;;
18435;SDS011;9346;52.006;4.720;2023-10-09T01:07:45;10.90;;;6.80;;
18435;SDS011;9346;52.006;4.720;2023-10-09T01:10:13;12.70;;;7.17;;
18435;SDS011;9346;52.006;4.720;2023-10-09T01:12:43;9.70;;;6.87;;
18435;SDS011;9346;52.006;4.720;2023-10-09T01:15:13;8.83;;;6.13;;
18435;SDS011;9346;52.006;4.720;2023-10-09T01:18:02;8.70;;;6.47;;
18435;SDS011;9346;52.006;4.720;2023-10-09T01:20:32;8.10;;;6.13;;
18435;SDS011;9346;52.006;4.720;2023-10-09T01:23:09;11.67;;;5.97;;
18435;SDS011;9346;52.006;4.720;2023-10-09T01:25:36;12.87;;;6.43;;
18435;SDS011;9346;52.006;4.720;2023-10-09T01:28:09;13.40;;;6.07;;
18435;SDS011;9346;52.006;4.720;2023-10-09T01:30:41;10.23;;;6.57;;
18435;SDS011;9346;52.006;4.720;2023-10-09T01:33:09;8.37;;;6.00;;
18435;SDS011;9346;52.006;4.720;2023-10-09T01:35:47;11.70;;;6.63;;
18435;SDS011;9346;52.006;4.720;2023-10-09T01:38:19;7.67;;;5.83;;
18435;SDS011;9346;52.006;4.720;2023-10-09T01:40:55;9.33;;;6.07;;
18435;SDS011;9346;52.006;4.720;2023-10-09T01:43:30;7.53;;;6.00;;
18435;SDS011;9346;52.006;4.720;2023-10-09T01:45:59;10.10;;;6.23;;
18435;SDS011;9346;52.006;4.720;2023-10-09T01:48:29;8.23;;;5.73;;
18435;SDS011;9346;52.006;4.720;2023-10-09T01:50:58;7.30;;;5.20;;
18435;SDS011;9346;52.006;4.720;2023-10-09T01:53:26;7.13;;;5.47;;
18435;SDS011;9346;52.006;4.720;2023-10-09T01:55:55;8.17;;;5.67;;
18435;SDS011;9346;52.006;4.720;2023-10-09T01:58:24;5.00;;;4.13;;
18435;SDS011;9346;52.006;4.720;2023-10-09T02:00:53;9.03;;;5.23;;
18435;SDS011;9346;52.006;4.720;2023-10-09T02:03:21;9.53;;;5.40;;
18435;SDS011;9346;52.006;4.720;2023-10-09T02:05:50;8.97;;;4.80;;
18435;SDS011;9346;52.006;4.720;2023-10-09T02:08:18;8.47;;;4.97;;
18435;SDS011;9346;52.006;4.720;2023-10-09T02:10:53;8.23;;;5.20;;
18435;SDS011;9346;52.006;4.720;2023-10-09T02:13:21;6.17;;;4.70;;
18435;SDS011;9346;52.006;4.720;2023-10-09T02:15:55;8.87;;;4.67;;
18435;SDS011;9346;52.006;4.720;2023-10-09T02:18:38;8.37;;;5.20;;
18435;SDS011;9346;52.006;4.720;2023-10-09T02:21:18;6.67;;;5.03;;
18435;SDS011;9346;52.006;4.720;2023-10-09T02:23:54;9.00;;;5.27;;
18435;SDS011;9346;52.006;4.720;2023-10-09T02:26:24;8.17;;;4.67;;
18435;SDS011;9346;52.006;4.720;2023-10-09T02:28:52;7.57;;;5.20;;
18435;SDS011;9346;52.006;4.720;2023-10-09T02:31:23;7.90;;;5.00;;
18435;SDS011;9346;52.006;4.720;2023-10-09T02:33:53;9.17;;;5.20;;
18435;SDS011;9346;52.006;4.720;2023-10-09T02:36:20;9.33;;;5.43;;
18435;SDS011;9346;52.006;4.720;2023-10-09T02:38:47;9.47;;;5.67;;
18435;SDS011;9346;52.006;4.720;2023-10-09T02:41:18;8.63;;;6.27;;
18435;SDS011;9346;52.006;4.720;2023-10-09T02:43:49;7.60;;;5.20;;
18435;SDS011;9346;52.006;4.720;2023-10-09T02:46:20;8.50;;;5.77;;
18435;SDS011;9346;52.006;4.720;2023-10-09T02:48:54;11.20;;;6.00;;
18435;SDS011;9346;52.006;4.720;2023-10-09T02:51:22;8.57;;;6.17;;
18435;SDS011;9346;52.006;4.720;2023-10-09T02:54:02;8.07;;;5.10;;
18435;SDS011;9346;52.006;4.720;2023-10-09T02:56:52;8.73;;;6.00;;
18435;SDS011;9346;52.006;4.720;2023-10-09T02:59:24;10.33;;;5.50;;
18435;SDS011;9346;52.006;4.720;2023-10-09T03:01:51;10.63;;;5.53;;
18435;SDS011;9346;52.006;4.720;2023-10-09T03:04:18;8.50;;;5.37;;
18435;SDS011;9346;52.006;4.720;2023-10-09T03:06:48;7.53;;;5.67;;
18435;SDS011;9346;52.006;4.720;2023-10-09T03:09:16;11.43;;;5.53;;
18435;SDS011;9346;52.006;4.720;2023-10-09T03:11:43;8.50;;;4.90;;
18435;SDS011;9346;52.006;4.720;2023-10-09T03:14:13;8.60;;;4.80;;
18435;SDS011;9346;52.006;4.720;2023-10-09T03:16:42;8.17;;;5.30;;
18435;SDS011;9346;52.006;4.720;2023-10-09T03:19:09;7.30;;;4.93;;
18435;SDS011;9346;52.006;4.720;2023-10-09T03:21:38;9.77;;;6.23;;
18435;SDS011;9346;52.006;4.720;2023-10-09T03:24:05;7.80;;;5.17;;
18435;SDS011;9346;52.006;4.720;2023-10-09T03:26:33;7.33;;;4.90;;
18435;SDS011;9346;52.006;4.720;2023-10-09T03:29:00;6.87;;;4.60;;
18435;SDS011;9346;52.006;4.720;2023-10-09T03:31:31;10.93;;;5.60;;
18435;SDS011;9346;52.006;4.720;2023-10-09T03:34:00;10.37;;;5.70;;
18435;SDS011;9346;52.006;4.720;2023-10-09T03:36:27;8.97;;;5.70;;
18435;SDS011;9346;52.006;4.720;2023-10-09T03:38:55;8.97;;;5.10;;
18435;SDS011;9346;52.006;4.720;2023-10-09T03:41:23;10.90;;;5.53;;
18435;SDS011;9346;52.006;4.720;2023-10-09T03:43:51;9.50;;;5.60;;
18435;SDS011;9346;52.006;4.720;2023-10-09T03:46:19;7.57;;;5.17;;
18435;SDS011;9346;52.006;4.720;2023-10-09T03:48:47;9.37;;;5.17;;
18435;SDS011;9346;52.006;4.720;2023-10-09T03:51:16;6.93;;;4.83;;
18435;SDS011;9346;52.006;4.720;2023-10-09T03:53:47;9.37;;;5.90;;
18435;SDS011;9346;52.006;4.720;2023-10-09T03:56:14;8.70;;;5.23;;
18435;SDS011;9346;52.006;4.720;2023-10-09T03:58:43;11.23;;;6.10;;
18435;SDS011;9346;52.006;4.720;2023-10-09T04:01:12;8.40;;;5.03;;
18435;SDS011;9346;52.006;4.720;2023-10-09T04:03:48;10.57;;;5.77;;
18435;SDS011;9346;52.006;4.720;2023-10-09T04:06:16;11.03;;;5.53;;
18435;SDS011;9346;52.006;4.720;2023-10-09T04:08:44;10.07;;;6.30;;
18435;SDS011;9346;52.006;4.720;2023-10-09T04:11:14;9.53;;;5.27;;
18435;SDS011;9346;52.006;4.720;2023-10-09T04:13:47;8.27;;;5.87;;
18435;SDS011;9346;52.006;4.720;2023-10-09T04:16:14;9.63;;;5.57;;
18435;SDS011;9346;52.006;4.720;2023-10-09T04:18:59;10.20;;;5.70;;
18435;SDS011;9346;52.006;4.720;2023-10-09T04:21:33;10.43;;;5.13;;
18435;SDS011;9346;52.006;4.720;2023-10-09T04:24:02;7.20;;;5.70;;
18435;SDS011;9346;52.006;4.720;2023-10-09T04:26:48;8.30;;;5.70;;
18435;SDS011;9346;52.006;4.720;2023-10-09T04:29:21;6.73;;;4.93;;
18435;SDS011;9346;52.006;4.720;2023-10-09T04:32:03;7.37;;;5.63;;
18435;SDS011;9346;52.006;4.720;2023-10-09T04:34:33;8.90;;;4.90;;
18435;SDS011;9346;52.006;4.720;2023-10-09T04:37:02;7.83;;;6.00;;
18435;SDS011;9346;52.006;4.720;2023-10-09T04:40:01;9.07;;;5.93;;
18435;SDS011;9346;52.006;4.720;2023-10-09T04:42:37;9.10;;;5.63;;
18435;SDS011;9346;52.006;4.720;2023-10-09T04:45:03;8.13;;;5.67;;
18435;SDS011;9346;52.006;4.720;2023-10-09T04:47:48;10.40;;;5.87;;
18435;SDS011;9346;52.006;4.720;2023-10-09T04:50:28;11.33;;;5.80;;
18435;SDS011;9346;52.006;4.720;2023-10-09T04:53:39;9.20;;;5.83;;
18435;SDS011;9346;52.006;4.720;2023-10-09T04:56:15;7.60;;;5.93;;
18435;SDS011;9346;52.006;4.720;2023-10-09T04:58:42;6.73;;;5.33;;
18435;SDS011;9346;52.006;4.720;2023-10-09T05:01:11;9.70;;;5.57;;
18435;SDS011;9346;52.006;4.720;2023-10-09T05:04:01;10.40;;;5.57;;
18435;SDS011;9346;52.006;4.720;2023-10-09T05:06:29;11.23;;;6.83;;
18435;SDS011;9346;52.006;4.720;2023-10-09T05:09:21;8.83;;;4.83;;
18435;SDS011;9346;52.006;4.720;2023-10-09T05:11:47;10.00;;;5.90;;
18435;SDS011;9346;52.006;4.720;2023-10-09T05:14:25;7.40;;;5.80;;
18435;SDS011;9346;52.006;4.720;2023-10-09T05:17:04;8.73;;;5.73;;
18435;SDS011;9346;52.006;4.720;2023-10-09T05:19:40;13.77;;;5.57;;
18435;SDS011;9346;52.006;4.720;2023-10-09T05:22:19;7.53;;;5.00;;
18435;SDS011;9346;52.006;4.720;2023-10-09T05:25:05;10.17;;;6.10;;
18435;SDS011;9346;52.006;4.720;2023-10-09T05:27:41;9.20;;;5.20;;
18435;SDS011;9346;52.006;4.720;2023-10-09T05:30:10;7.67;;;5.60;;
18435;SDS011;9346;52.006;4.720;2023-10-09T05:32:57;8.53;;;5.00;;
18435;SDS011;9346;52.006;4.720;2023-10-09T05:35:48;8.27;;;5.97;;
18435;SDS011;9346;52.006;4.720;2023-10-09T05:38:30;9.80;;;5.73;;
18435;SDS011;9346;52.006;4.720;2023-10-09T05:41:02;13.00;;;5.20;;
18435;SDS011;9346;52.006;4.720;2023-10-09T05:43:56;10.03;;;5.43;;
18435;SDS011;9346;52.006;4.720;2023-10-09T05:46:39;7.80;;;5.33;;
18435;SDS011;9346;52.006;4.720;2023-10-09T05:49:26;11.83;;;5.97;;
18435;SDS011;9346;52.006;4.720;2023-10-09T05:52:11;7.90;;;5.10;;
18435;SDS011;9346;52.006;4.720;2023-10-09T05:54:51;8.03;;;4.70;;
18435;SDS011;9346;52.006;4.720;2023-10-09T05:57:47;6.67;;;4.43;;
18435;SDS011;9346;52.006;4.720;2023-10-09T06:00:31;7.47;;;4.47;;
18435;SDS011;9346;52.006;4.720;2023-10-09T06:03:15;10.13;;;5.87;;
18435;SDS011;9346;52.006;4.720;2023-10-09T06:06:03;7.57;;;5.00;;
18435;SDS011;9346;52.006;4.720;2023-10-09T06:08:31;7.73;;;4.50;;
18435;SDS011;9346;52.006;4.720;2023-10-09T06:11:34;6.10;;;4.07;;
18435;SDS011;9346;52.006;4.720;2023-10-09T06:14:08;8.73;;;4.90;;
18435;SDS011;9346;52.006;4.720;2023-10-09T06:16:50;7.97;;;4.40;;
18435;SDS011;9346;52.006;4.720;2023-10-09T06:19:25;8.83;;;4.70;;
18435;SDS011;9346;52.006;4.720;2023-10-09T06:21:53;6.63;;;4.73;;
18435;SDS011;9346;52.006;4.720;2023-10-09T06:25:04;8.03;;;4.43;;
18435;SDS011;9346;52.006;4.720;2023-10-09T06:27:36;6.67;;;4.40;;
18435;SDS011;9346;52.006;4.720;2023-10-09T06:30:31;7.40;;;4.53;;
18435;SDS011;9346;52.006;4.720;2023-10-09T06:33:09;8.03;;;4.77;;
18435;SDS011;9346;52.006;4.720;2023-10-09T06:35:54;8.73;;;4.90;;
18435;SDS011;9346;52.006;4.720;2023-10-09T06:38:21;8.40;;;4.73;;
18435;SDS011;9346;52.006;4.720;2023-10-09T06:40:48;6.60;;;4.97;;
18435;SDS011;9346;52.006;4.720;2023-10-09T06:43:33;7.80;;;3.83;;
18435;SDS011;9346;52.006;4.720;2023-10-09T06:46:14;5.27;;;3.57;;
18435;SDS011;9346;52.006;4.720;2023-10-09T06:49:09;8.88;;;4.57;;
18435;SDS011;9346;52.006;4.720;2023-10-09T06:51:55;10.70;;;4.27;;
18435;SDS011;9346;52.006;4.720;2023-10-09T06:54:38;10.60;;;4.73;;
18435;SDS011;9346;52.006;4.720;2023-10-09T06:57:05;7.90;;;4.33;;
18435;SDS011;9346;52.006;4.720;2023-10-09T07:00:04;7.70;;;4.20;;
18435;SDS011;9346;52.006;4.720;2023-10-09T07:02:53;8.87;;;4.87;;
18435;SDS011;9346;52.006;4.720;2023-10-09T07:05:21;7.83;;;4.60;;
18435;SDS011;9346;52.006;4.720;2023-10-09T07:07:56;8.57;;;4.30;;
18435;SDS011;9346;52.006;4.720;2023-10-09T07:10:44;8.83;;;4.47;;
18435;SDS011;9346;52.006;4.720;2023-10-09T07:13:27;5.37;;;4.10;;
18435;SDS011;9346;52.006;4.720;2023-10-09T07:15:55;9.37;;;4.80;;
18435;SDS011;9346;52.006;4.720;2023-10-09T07:18:41;8.93;;;4.47;;
18435;SDS011;9346;52.006;4.720;2023-10-09T07:21:14;5.90;;;4.10;;
18435;SDS011;9346;52.006;4.720;2023-10-09T07:23:52;11.43;;;4.80;;
18435;SDS011;9346;52.006;4.720;2023-10-09T07:26:22;6.67;;;4.63;;
18435;SDS011;9346;52.006;4.720;2023-10-09T07:29:02;8.00;;;4.60;;
18435;SDS011;9346;52.006;4.720;2023-10-09T07:31:41;5.07;;;4.30;;
18435;SDS011;9346;52.006;4.720;2023-10-09T07:37:13;6.47;;;4.27;;
18435;SDS011;9346;52.006;4.720;2023-10-09T07:39:44;5.53;;;3.90;;
18435;SDS011;9346;52.006;4.720;2023-10-09T07:42:22;8.07;;;4.93;;
18435;SDS011;9346;52.006;4.720;2023-10-09T07:44:58;5.80;;;4.23;;
18435;SDS011;9346;52.006;4.720;2023-10-09T07:47:37;8.50;;;4.57;;
18435;SDS011;9346;52.006;4.720;2023-10-09T07:50:28;5.70;;;3.60;;
18435;SDS011;9346;52.006;4.720;2023-10-09T07:53:03;10.57;;;4.80;;
18435;SDS011;9346;52.006;4.720;2023-10-09T07:55:43;10.47;;;4.33;;
18435;SDS011;9346;52.006;4.720;2023-10-09T07:58:19;6.77;;;3.97;;
18435;SDS011;9346;52.006;4.720;2023-10-09T08:00:50;7.97;;;4.43;;
18435;SDS011;9346;52.006;4.720;2023-10-09T08:03:31;5.37;;;3.87;;
18435;SDS011;9346;52.006;4.720;2023-10-09T08:06:00;6.97;;;4.37;;
18435;SDS011;9346;52.006;4.720;2023-10-09T08:08:53;8.70;;;5.23;;
18435;SDS011;9346;52.006;4.720;2023-10-09T08:11:37;8.03;;;4.97;;
18435;SDS011;9346;52.006;4.720;2023-10-09T08:14:25;6.27;;;3.87;;
18435;SDS011;9346;52.006;4.720;2023-10-09T08:17:13;8.17;;;4.60;;
18435;SDS011;9346;52.006;4.720;2023-10-09T08:19:46;8.40;;;3.93;;
18435;SDS011;9346;52.006;4.720;2023-10-09T08:25:09;9.10;;;4.53;;
18435;SDS011;9346;52.006;4.720;2023-10-09T08:27:51;10.43;;;4.90;;
18435;SDS011;9346;52.006;4.720;2023-10-09T08:30:22;10.50;;;4.27;;
18435;SDS011;9346;52.006;4.720;2023-10-09T08:33:14;6.83;;;4.57;;
18435;SDS011;9346;52.006;4.720;2023-10-09T08:35:58;8.73;;;4.07;;
18435;SDS011;9346;52.006;4.720;2023-10-09T08:38:32;8.40;;;5.10;;
18435;SDS011;9346;52.006;4.720;2023-10-09T08:41:09;8.83;;;4.80;;
18435;SDS011;9346;52.006;4.720;2023-10-09T08:43:47;6.77;;;4.70;;
18435;SDS011;9346;52.006;4.720;2023-10-09T08:46:20;9.30;;;4.80;;
18435;SDS011;9346;52.006;4.720;2023-10-09T08:48:48;6.07;;;4.10;;
18435;SDS011;9346;52.006;4.720;2023-10-09T08:51:19;8.27;;;5.27;;
18435;SDS011;9346;52.006;4.720;2023-10-09T08:53:48;7.20;;;4.33;;
18435;SDS011;9346;52.006;4.720;2023-10-09T08:56:15;6.37;;;4.20;;
18435;SDS011;9346;52.006;4.720;2023-10-09T08:58:49;10.50;;;4.43;;
18435;SDS011;9346;52.006;4.720;2023-10-09T09:01:18;5.00;;;3.97;;
18435;SDS011;9346;52.006;4.720;2023-10-09T09:03:47;7.53;;;4.13;;
18435;SDS011;9346;52.006;4.720;2023-10-09T09:06:15;8.40;;;4.77;;
18435;SDS011;9346;52.006;4.720;2023-10-09T09:08:44;9.87;;;5.10;;
18435;SDS011;9346;52.006;4.720;2023-10-09T09:11:14;8.13;;;4.57;;
18435;SDS011;9346;52.006;4.720;2023-10-09T09:13:48;7.07;;;4.87;;
18435;SDS011;9346;52.006;4.720;2023-10-09T09:16:29;8.80;;;5.03;;
18435;SDS011;9346;52.006;4.720;2023-10-09T09:19:00;8.33;;;4.60;;
18435;SDS011;9346;52.006;4.720;2023-10-09T09:21:30;11.47;;;4.40;;
18435;SDS011;9346;52.006;4.720;2023-10-09T09:24:03;7.43;;;4.40;;
18435;SDS011;9346;52.006;4.720;2023-10-09T09:26:42;6.83;;;3.80;;
18435;SDS011;9346;52.006;4.720;2023-10-09T09:29:13;6.07;;;3.70;;
18435;SDS011;9346;52.006;4.720;2023-10-09T09:31:51;7.13;;;3.97;;
18435;SDS011;9346;52.006;4.720;2023-10-09T09:34:19;5.90;;;3.37;;
18435;SDS011;9346;52.006;4.720;2023-10-09T09:36:51;7.93;;;3.70;;
18435;SDS011;9346;52.006;4.720;2023-10-09T09:39:23;6.03;;;3.60;;
18435;SDS011;9346;52.006;4.720;2023-10-09T09:41:57;10.50;;;4.50;;
18435;SDS011;9346;52.006;4.720;2023-10-09T09:44:32;6.90;;;3.27;;
18435;SDS011;9346;52.006;4.720;2023-10-09T09:47:11;10.93;;;3.60;;
18435;SDS011;9346;52.006;4.720;2023-10-09T09:49:48;7.43;;;3.43;;
18435;SDS011;9346;52.006;4.720;2023-10-09T09:52:25;10.03;;;3.97;;
18435;SDS011;9346;52.006;4.720;2023-10-09T09:54:53;6.40;;;3.67;;
18435;SDS011;9346;52.006;4.720;2023-10-09T09:57:25;6.00;;;3.33;;
18435;SDS011;9346;52.006;4.720;2023-10-09T09:59:53;6.87;;;3.43;;
18435;SDS011;9346;52.006;4.720;2023-10-09T10:02:24;5.97;;;2.90;;
18435;SDS011;9346;52.006;4.720;2023-10-09T10:04:59;6.00;;;3.23;;
18435;SDS011;9346;52.006;4.720;2023-10-09T10:07:31;5.97;;;3.40;;
18435;SDS011;9346;52.006;4.720;2023-10-09T10:13:14;8.57;;;3.27;;
18435;SDS011;9346;52.006;4.720;2023-10-09T10:15:58;6.50;;;3.20;;
18435;SDS011;9346;52.006;4.720;2023-10-09T10:19:05;4.13;;;3.13;;
18435;SDS011;9346;52.006;4.720;2023-10-09T10:21:47;4.33;;;2.80;;
18435;SDS011;9346;52.006;4.720;2023-10-09T10:27:20;4.93;;;3.17;;
18435;SDS011;9346;52.006;4.720;2023-10-09T10:33:02;7.43;;;3.40;;
18435;SDS011;9346;52.006;4.720;2023-10-09T10:35:45;8.20;;;3.37;;
18435;SDS011;9346;52.006;4.720;2023-10-09T10:38:24;7.07;;;3.50;;
18435;SDS011;9346;52.006;4.720;2023-10-09T10:41:07;9.20;;;2.73;;
18435;SDS011;9346;52.006;4.720;2023-10-09T10:43:38;6.63;;;3.53;;
18435;SDS011;9346;52.006;4.720;2023-10-09T10:46:26;5.97;;;3.43;;
18435;SDS011;9346;52.006;4.720;2023-10-09T10:49:07;4.07;;;3.17;;
18435;SDS011;9346;52.006;4.720;2023-10-09T10:51:47;4.03;;;2.60;;
18435;SDS011;9346;52.006;4.720;2023-10-09T10:54:24;6.57;;;2.97;;
18435;SDS011;9346;52.006;4.720;2023-10-09T10:57:18;5.77;;;3.03;;
18435;SDS011;9346;52.006;4.720;2023-10-09T11:00:18;5.43;;;3.13;;
18435;SDS011;9346;52.006;4.720;2023-10-09T11:02:58;5.00;;;3.40;;
18435;SDS011;9346;52.006;4.720;2023-10-09T11:05:38;4.33;;;2.47;;
18435;SDS011;9346;52.006;4.720;2023-10-09T11:08:10;5.63;;;3.40;;
18435;SDS011;9346;52.006;4.720;2023-10-09T11:10:38;9.07;;;3.17;;
18435;SDS011;9346;52.006;4.720;2023-10-09T11:13:20;4.33;;;2.90;;
18435;SDS011;9346;52.006;4.720;2023-10-09T11:16:00;5.33;;;2.80;;
18435;SDS011;9346;52.006;4.720;2023-10-09T11:18:54;6.63;;;2.97;;
18435;SDS011;9346;52.006;4.720;2023-10-09T11:21:22;7.87;;;2.67;;
18435;SDS011;9346;52.006;4.720;2023-10-09T11:23:57;8.93;;;3.83;;
18435;SDS011;9346;52.006;4.720;2023-10-09T11:26:34;8.20;;;3.20;;
18435;SDS011;9346;52.006;4.720;2023-10-09T11:29:08;7.67;;;2.40;;
18435;SDS011;9346;52.006;4.720;2023-10-09T11:31:42;5.90;;;3.07;;
18435;SDS011;9346;52.006;4.720;2023-10-09T11:34:25;4.83;;;2.70;;
18435;SDS011;9346;52.006;4.720;2023-10-09T11:36:57;10.30;;;3.43;;
18435;SDS011;9346;52.006;4.720;2023-10-09T11:39:27;5.37;;;2.83;;
18435;SDS011;9346;52.006;4.720;2023-10-09T11:42:03;6.43;;;3.17;;
18435;SDS011;9346;52.006;4.720;2023-10-09T11:44:37;4.40;;;3.07;;
18435;SDS011;9346;52.006;4.720;2023-10-09T11:47:11;6.47;;;2.90;;
18435;SDS011;9346;52.006;4.720;2023-10-09T11:49:49;7.53;;;3.37;;
18435;SDS011;9346;52.006;4.720;2023-10-09T11:52:35;5.50;;;3.27;;
18435;SDS011;9346;52.006;4.720;2023-10-09T11:55:05;7.23;;;3.27;;
18435;SDS011;9346;52.006;4.720;2023-10-09T11:57:38;5.77;;;2.97;;
18435;SDS011;9346;52.006;4.720;2023-10-09T12:00:05;5.63;;;2.70;;
18435;SDS011;9346;52.006;4.720;2023-10-09T12:02:49;8.40;;;3.40;;
18435;SDS011;9346;52.006;4.720;2023-10-09T12:05:16;7.17;;;3.27;;
18435;SDS011;9346;52.006;4.720;2023-10-09T12:07:45;7.67;;;3.60;;
18435;SDS011;9346;52.006;4.720;2023-10-09T12:10:13;7.10;;;3.30;;
18435;SDS011;9346;52.006;4.720;2023-10-09T12:12:49;5.80;;;3.23;;
18435;SDS011;9346;52.006;4.720;2023-10-09T12:15:16;6.97;;;3.80;;
18435;SDS011;9346;52.006;4.720;2023-10-09T12:17:44;5.00;;;3.27;;
18435;SDS011;9346;52.006;4.720;2023-10-09T12:20:12;7.20;;;3.87;;
18435;SDS011;9346;52.006;4.720;2023-10-09T12:22:55;11.87;;;4.13;;
18435;SDS011;9346;52.006;4.720;2023-10-09T12:25:25;5.03;;;3.47;;
18435;SDS011;9346;52.006;4.720;2023-10-09T12:27:56;6.27;;;4.07;;
18435;SDS011;9346;52.006;4.720;2023-10-09T12:30:23;6.70;;;3.87;;
18435;SDS011;9346;52.006;4.720;2023-10-09T12:32:53;7.07;;;3.47;;
18435;SDS011;9346;52.006;4.720;2023-10-09T12:35:22;3.97;;;2.80;;
18435;SDS011;9346;52.006;4.720;2023-10-09T12:37:50;4.00;;;2.90;;
18435;SDS011;9346;52.006;4.720;2023-10-09T12:40:17;9.30;;;3.73;;
18435;SDS011;9346;52.006;4.720;2023-10-09T12:42:51;7.17;;;3.20;;
18435;SDS011;9346;52.006;4.720;2023-10-09T12:45:20;7.40;;;2.97;;
18435;SDS011;9346;52.006;4.720;2023-10-09T12:47:51;7.50;;;3.47;;
18435;SDS011;9346;52.006;4.720;2023-10-09T12:50:19;8.47;;;3.83;;
18435;SDS011;9346;52.006;4.720;2023-10-09T12:52:53;9.17;;;3.73;;
18435;SDS011;9346;52.006;4.720;2023-10-09T12:55:20;7.07;;;3.50;;
18435;SDS011;9346;52.006;4.720;2023-10-09T12:57:47;4.00;;;2.33;;
18435;SDS011;9346;52.006;4.720;2023-10-09T13:00:18;5.27;;;3.20;;
18435;SDS011;9346;52.006;4.720;2023-10-09T13:02:50;10.07;;;3.60;;
18435;SDS011;9346;52.006;4.720;2023-10-09T13:05:17;6.03;;;3.17;;
18435;SDS011;9346;52.006;4.720;2023-10-09T13:07:51;7.20;;;3.10;;
18435;SDS011;9346;52.006;4.720;2023-10-09T13:10:21;5.43;;;3.20;;
18435;SDS011;9346;52.006;4.720;2023-10-09T13:12:49;3.93;;;2.97;;
18435;SDS011;9346;52.006;4.720;2023-10-09T13:15:22;4.73;;;3.03;;
18435;SDS011;9346;52.006;4.720;2023-10-09T13:17:49;6.13;;;3.10;;
18435;SDS011;9346;52.006;4.720;2023-10-09T13:20:18;6.23;;;3.13;;
18435;SDS011;9346;52.006;4.720;2023-10-09T13:22:46;7.23;;;3.30;;
18435;SDS011;9346;52.006;4.720;2023-10-09T13:25:14;3.93;;;3.27;;
18435;SDS011;9346;52.006;4.720;2023-10-09T13:27:42;7.77;;;3.47;;
18435;SDS011;9346;52.006;4.720;2023-10-09T13:30:16;6.43;;;3.73;;
18435;SDS011;9346;52.006;4.720;2023-10-09T13:32:49;4.57;;;3.33;;
18435;SDS011;9346;52.006;4.720;2023-10-09T13:35:16;7.40;;;3.93;;
18435;SDS011;9346;52.006;4.720;2023-10-09T13:37:44;6.00;;;3.20;;
18435;SDS011;9346;52.006;4.720;2023-10-09T13:40:19;6.80;;;3.23;;
18435;SDS011;9346;52.006;4.720;2023-10-09T13:42:52;6.77;;;3.43;;
18435;SDS011;9346;52.006;4.720;2023-10-09T13:45:24;5.53;;;3.00;;
18435;SDS011;9346;52.006;4.720;2023-10-09T13:47:56;6.70;;;3.00;;
18435;SDS011;9346;52.006;4.720;2023-10-09T13:50:23;6.67;;;3.37;;
18435;SDS011;9346;52.006;4.720;2023-10-09T13:52:54;5.87;;;3.67;;
18435;SDS011;9346;52.006;4.720;2023-10-09T13:55:21;8.30;;;3.70;;
18435;SDS011;9346;52.006;4.720;2023-10-09T13:57:55;6.77;;;3.67;;
18435;SDS011;9346;52.006;4.720;2023-10-09T14:00:22;5.67;;;3.27;;
18435;SDS011;9346;52.006;4.720;2023-10-09T14:03:01;5.67;;;3.27;;
18435;SDS011;9346;52.006;4.720;2023-10-09T14:05:36;7.67;;;3.10;;
18435;SDS011;9346;52.006;4.720;2023-10-09T14:08:16;5.27;;;3.00;;
18435;SDS011;9346;52.006;4.720;2023-10-09T14:10:47;5.43;;;3.10;;
18435;SDS011;9346;52.006;4.720;2023-10-09T14:13:14;8.30;;;4.03;;
18435;SDS011;9346;52.006;4.720;2023-10-09T14:15:41;6.77;;;3.13;;
18435;SDS011;9346;52.006;4.720;2023-10-09T14:18:13;7.13;;;3.87;;
18435;SDS011;9346;52.006;4.720;2023-10-09T14:20:40;8.13;;;4.20;;
18435;SDS011;9346;52.006;4.720;2023-10-09T14:23:08;8.33;;;3.90;;
18435;SDS011;9346;52.006;4.720;2023-10-09T14:25:37;10.83;;;3.93;;
18435;SDS011;9346;52.006;4.720;2023-10-09T14:28:05;5.43;;;4.00;;
18435;SDS011;9346;52.006;4.720;2023-10-09T14:30:34;8.27;;;4.33;;
18435;SDS011;9346;52.006;4.720;2023-10-09T14:33:07;7.90;;;4.10;;
18435;SDS011;9346;52.006;4.720;2023-10-09T14:35:39;7.43;;;3.80;;
18435;SDS011;9346;52.006;4.720;2023-10-09T14:38:07;5.67;;;3.73;;
18435;SDS011;9346;52.006;4.720;2023-10-09T14:40:40;9.70;;;3.83;;
18435;SDS011;9346;52.006;4.720;2023-10-09T14:43:07;7.47;;;4.40;;
18435;SDS011;9346;52.006;4.720;2023-10-09T14:45:44;6.83;;;4.27;;
18435;SDS011;9346;52.006;4.720;2023-10-09T14:48:13;7.10;;;4.40;;
18435;SDS011;9346;52.006;4.720;2023-10-09T14:50:47;7.63;;;3.83;;
18435;SDS011;9346;52.006;4.720;2023-10-09T14:53:18;6.57;;;3.73;;
18435;SDS011;9346;52.006;4.720;2023-10-09T14:55:46;9.30;;;4.67;;
18435;SDS011;9346;52.006;4.720;2023-10-09T14:58:13;7.73;;;4.60;;
18435;SDS011;9346;52.006;4.720;2023-10-09T15:00:42;9.20;;;4.10;;
18435;SDS011;9346;52.006;4.720;2023-10-09T15:03:12;8.57;;;4.97;;
18435;SDS011;9346;52.006;4.720;2023-10-09T15:05:40;5.57;;;4.23;;
18435;SDS011;9346;52.006;4.720;2023-10-09T15:08:08;8.90;;;4.67;;
18435;SDS011;9346;52.006;4.720;2023-10-09T15:10:43;9.83;;;4.77;;
18435;SDS011;9346;52.006;4.720;2023-10-09T15:13:12;8.20;;;4.67;;
18435;SDS011;9346;52.006;4.720;2023-10-09T15:15:41;7.60;;;4.50;;
18435;SDS011;9346;52.006;4.720;2023-10-09T15:18:08;11.57;;;4.97;;
18435;SDS011;9346;52.006;4.720;2023-10-09T15:20:37;7.60;;;4.97;;
18435;SDS011;9346;52.006;4.720;2023-10-09T15:23:05;7.73;;;5.20;;
18435;SDS011;9346;52.006;4.720;2023-10-09T15:25:34;9.80;;;4.87;;
18435;SDS011;9346;52.006;4.720;2023-10-09T15:28:04;6.97;;;4.27;;
18435;SDS011;9346;52.006;4.720;2023-10-09T15:30:32;7.63;;;4.27;;
18435;SDS011;9346;52.006;4.720;2023-10-09T15:32:59;7.57;;;4.43;;
18435;SDS011;9346;52.006;4.720;2023-10-09T15:35:26;7.63;;;4.20;;
18435;SDS011;9346;52.006;4.720;2023-10-09T15:37:55;6.93;;;4.77;;
18435;SDS011;9346;52.006;4.720;2023-10-09T15:40:21;7.73;;;4.50;;
18435;SDS011;9346;52.006;4.720;2023-10-09T15:42:51;8.23;;;4.57;;
18435;SDS011;9346;52.006;4.720;2023-10-09T15:45:21;8.90;;;4.60;;
18435;SDS011;9346;52.006;4.720;2023-10-09T15:47:49;7.33;;;4.43;;
18435;SDS011;9346;52.006;4.720;2023-10-09T15:50:17;6.37;;;4.20;;
18435;SDS011;9346;52.006;4.720;2023-10-09T15:52:44;7.83;;;5.13;;
18435;SDS011;9346;52.006;4.720;2023-10-09T15:55:16;7.07;;;4.30;;